sensor_id;sensor_type;location;lat;lon;timestamp;P1;durP1;ratioP1;P2;durP2;ratioP2
665;SDS011;315;48.738;9.126;2024-01-15T00:00:37;21.27;;;10.27;;
665;SDS011;315;48.738;9.126;2024-01-15T00:03:06;21.20;;;12.63;;
665;SDS011;315;48.738;9.126;2024-01-15T00:05:31;22.73;;;10.57;;
665;SDS011;315;48.738;9.126;2024-01-15T00:07:57;16.10;;;10.47;;
665;SDS011;315;48.738;9.126;2024-01-15T00:10:23;18.70;;;9.67;;
665;SDS011;315;48.738;9.126;2024-01-15T00:12:48;19.20;;;10.13;;
665;SDS011;315;48.738;9.126;2024-01-15T00:15:14;17.33;;;10.00;;
665;SDS011;315;48.738;9.126;2024-01-15T00:17:40;17.90;;;10.40;;
665;SDS011;315;48.738;9.126;2024-01-15T00:20:05;19.20;;;10.60;;
665;SDS011;315;48.738;9.126;2024-01-15T00:22:31;19.77;;;10.37;;
665;SDS011;315;48.738;9.126;2024-01-15T00:24:57;19.60;;;10.70;;
665;SDS011;315;48.738;9.126;2024-01-15T00:27:23;17.87;;;10.07;;
665;SDS011;315;48.738;9.126;2024-01-15T00:29:48;20.77;;;10.03;;
665;SDS011;315;48.738;9.126;2024-01-15T00:32:15;20.93;;;11.37;;
665;SDS011;315;48.738;9.126;2024-01-15T00:34:41;19.20;;;10.07;;
665;SDS011;315;48.738;9.126;2024-01-15T00:37:06;17.50;;;9.10;;
665;SDS011;315;48.738;9.126;2024-01-15T00:39:32;19.83;;;8.47;;
665;SDS011;315;48.738;9.126;2024-01-15T00:41:58;17.60;;;9.13;;
665;SDS011;315;48.738;9.126;2024-01-15T00:44:23;18.30;;;9.07;;
665;SDS011;315;48.738;9.126;2024-01-15T00:46:49;21.00;;;10.07;;
665;SDS011;315;48.738;9.126;2024-01-15T00:49:14;19.97;;;10.40;;
665;SDS011;315;48.738;9.126;2024-01-15T00:51:40;18.83;;;10.37;;
665;SDS011;315;48.738;9.126;2024-01-15T00:54:06;14.10;;;8.40;;
665;SDS011;315;48.738;9.126;2024-01-15T00:56:31;11.90;;;7.67;;
665;SDS011;315;48.738;9.126;2024-01-15T00:58:57;14.17;;;8.73;;
665;SDS011;315;48.738;9.126;2024-01-15T01:01:23;16.30;;;9.43;;
665;SDS011;315;48.738;9.126;2024-01-15T01:03:48;19.03;;;8.80;;
665;SDS011;315;48.738;9.126;2024-01-15T01:06:14;19.97;;;9.53;;
665;SDS011;315;48.738;9.126;2024-01-15T01:08:39;15.60;;;8.90;;
665;SDS011;315;48.738;9.126;2024-01-15T01:11:05;19.07;;;10.87;;
665;SDS011;315;48.738;9.126;2024-01-15T01:13:31;21.33;;;10.40;;
665;SDS011;315;48.738;9.126;2024-01-15T01:15:57;15.53;;;8.20;;
665;SDS011;315;48.738;9.126;2024-01-15T01:18:23;15.80;;;8.23;;
665;SDS011;315;48.738;9.126;2024-01-15T01:20:48;14.90;;;8.90;;
665;SDS011;315;48.738;9.126;2024-01-15T01:23:14;25.23;;;9.97;;
665;SDS011;315;48.738;9.126;2024-01-15T01:25:40;16.30;;;9.10;;
665;SDS011;315;48.738;9.126;2024-01-15T01:28:05;22.83;;;9.33;;
665;SDS011;315;48.738;9.126;2024-01-15T01:30:31;20.23;;;8.83;;
665;SDS011;315;48.738;9.126;2024-01-15T01:32:56;15.83;;;8.57;;
665;SDS011;315;48.738;9.126;2024-01-15T01:35:22;18.57;;;9.93;;
665;SDS011;315;48.738;9.126;2024-01-15T01:37:48;16.73;;;7.67;;
665;SDS011;315;48.738;9.126;2024-01-15T01:40:13;18.10;;;9.87;;
665;SDS011;315;48.738;9.126;2024-01-15T01:42:39;19.40;;;9.83;;
665;SDS011;315;48.738;9.126;2024-01-15T01:45:04;15.33;;;9.80;;
665;SDS011;315;48.738;9.126;2024-01-15T01:47:30;18.00;;;10.40;;
665;SDS011;315;48.738;9.126;2024-01-15T01:49:57;17.60;;;8.53;;
665;SDS011;315;48.738;9.126;2024-01-15T01:52:22;18.53;;;9.97;;
665;SDS011;315;48.738;9.126;2024-01-15T01:54:49;13.63;;;9.10;;
665;SDS011;315;48.738;9.126;2024-01-15T01:57:14;19.30;;;10.13;;
665;SDS011;315;48.738;9.126;2024-01-15T01:59:41;15.60;;;8.13;;
665;SDS011;315;48.738;9.126;2024-01-15T02:02:07;18.93;;;9.03;;
665;SDS011;315;48.738;9.126;2024-01-15T02:04:32;20.60;;;9.10;;
665;SDS011;315;48.738;9.126;2024-01-15T02:06:59;11.53;;;7.00;;
665;SDS011;315;48.738;9.126;2024-01-15T02:09:25;14.53;;;8.10;;
665;SDS011;315;48.738;9.126;2024-01-15T02:11:51;14.83;;;7.37;;
665;SDS011;315;48.738;9.126;2024-01-15T02:14:16;13.87;;;8.20;;
665;SDS011;315;48.738;9.126;2024-01-15T02:16:42;16.80;;;8.13;;
665;SDS011;315;48.738;9.126;2024-01-15T02:19:14;19.10;;;10.10;;
665;SDS011;315;48.738;9.126;2024-01-15T02:21:40;17.30;;;7.67;;
665;SDS011;315;48.738;9.126;2024-01-15T02:24:06;16.27;;;8.77;;
665;SDS011;315;48.738;9.126;2024-01-15T02:26:31;15.20;;;7.90;;
665;SDS011;315;48.738;9.126;2024-01-15T02:29:00;17.07;;;8.47;;
665;SDS011;315;48.738;9.126;2024-01-15T02:31:26;19.80;;;8.53;;
665;SDS011;315;48.738;9.126;2024-01-15T02:33:52;20.40;;;10.17;;
665;SDS011;315;48.738;9.126;2024-01-15T02:36:17;16.67;;;8.80;;
665;SDS011;315;48.738;9.126;2024-01-15T02:38:43;12.73;;;8.20;;
665;SDS011;315;48.738;9.126;2024-01-15T02:41:08;17.67;;;7.73;;
665;SDS011;315;48.738;9.126;2024-01-15T02:43:34;12.23;;;7.20;;
665;SDS011;315;48.738;9.126;2024-01-15T02:45:59;18.33;;;8.93;;
665;SDS011;315;48.738;9.126;2024-01-15T02:48:25;13.53;;;8.00;;
665;SDS011;315;48.738;9.126;2024-01-15T02:50:50;18.20;;;11.50;;
665;SDS011;315;48.738;9.126;2024-01-15T02:53:16;14.87;;;8.90;;
665;SDS011;315;48.738;9.126;2024-01-15T02:55:41;18.13;;;9.10;;
665;SDS011;315;48.738;9.126;2024-01-15T02:58:07;13.30;;;8.13;;
665;SDS011;315;48.738;9.126;2024-01-15T03:00:32;17.77;;;9.10;;
665;SDS011;315;48.738;9.126;2024-01-15T03:02:58;15.90;;;8.20;;
665;SDS011;315;48.738;9.126;2024-01-15T03:05:24;11.40;;;7.80;;
665;SDS011;315;48.738;9.126;2024-01-15T03:07:49;18.13;;;8.70;;
665;SDS011;315;48.738;9.126;2024-01-15T03:10:15;15.47;;;9.23;;
665;SDS011;315;48.738;9.126;2024-01-15T03:12:40;15.93;;;9.30;;
665;SDS011;315;48.738;9.126;2024-01-15T03:15:06;17.23;;;8.43;;
665;SDS011;315;48.738;9.126;2024-01-15T03:17:31;16.40;;;7.90;;
665;SDS011;315;48.738;9.126;2024-01-15T03:19:57;13.17;;;7.87;;
665;SDS011;315;48.738;9.126;2024-01-15T03:22:22;17.60;;;8.80;;
665;SDS011;315;48.738;9.126;2024-01-15T03:24:48;16.90;;;9.50;;
665;SDS011;315;48.738;9.126;2024-01-15T03:27:13;16.90;;;8.27;;
665;SDS011;315;48.738;9.126;2024-01-15T03:29:39;16.20;;;7.73;;
665;SDS011;315;48.738;9.126;2024-01-15T03:32:05;17.00;;;8.27;;
665;SDS011;315;48.738;9.126;2024-01-15T03:34:31;14.43;;;9.20;;
665;SDS011;315;48.738;9.126;2024-01-15T03:36:57;14.17;;;8.80;;
665;SDS011;315;48.738;9.126;2024-01-15T03:39:23;17.67;;;9.30;;
665;SDS011;315;48.738;9.126;2024-01-15T03:41:49;17.77;;;8.43;;
665;SDS011;315;48.738;9.126;2024-01-15T03:44:14;15.27;;;8.67;;
665;SDS011;315;48.738;9.126;2024-01-15T03:46:40;16.40;;;9.30;;
665;SDS011;315;48.738;9.126;2024-01-15T03:49:05;11.53;;;7.37;;
665;SDS011;315;48.738;9.126;2024-01-15T03:51:31;14.90;;;9.07;;
665;SDS011;315;48.738;9.126;2024-01-15T03:53:56;18.10;;;9.27;;
665;SDS011;315;48.738;9.126;2024-01-15T03:56:22;21.30;;;10.00;;
665;SDS011;315;48.738;9.126;2024-01-15T03:58:47;16.03;;;8.30;;
665;SDS011;315;48.738;9.126;2024-01-15T04:01:13;12.77;;;7.60;;
665;SDS011;315;48.738;9.126;2024-01-15T04:03:38;10.57;;;7.03;;
665;SDS011;315;48.738;9.126;2024-01-15T04:06:04;16.93;;;7.83;;
665;SDS011;315;48.738;9.126;2024-01-15T04:08:30;11.60;;;7.23;;
665;SDS011;315;48.738;9.126;2024-01-15T04:10:55;12.50;;;7.00;;
665;SDS011;315;48.738;9.126;2024-01-15T04:13:21;17.70;;;9.63;;
665;SDS011;315;48.738;9.126;2024-01-15T04:15:47;14.37;;;7.47;;
665;SDS011;315;48.738;9.126;2024-01-15T04:18:12;13.13;;;7.80;;
665;SDS011;315;48.738;9.126;2024-01-15T04:20:38;12.50;;;7.40;;
665;SDS011;315;48.738;9.126;2024-01-15T04:23:03;12.00;;;7.43;;
665;SDS011;315;48.738;9.126;2024-01-15T04:25:29;15.43;;;8.13;;
665;SDS011;315;48.738;9.126;2024-01-15T04:27:55;12.73;;;7.67;;
665;SDS011;315;48.738;9.126;2024-01-15T04:30:21;9.80;;;7.30;;
665;SDS011;315;48.738;9.126;2024-01-15T04:32:46;14.83;;;7.83;;
665;SDS011;315;48.738;9.126;2024-01-15T04:35:12;13.00;;;7.77;;
665;SDS011;315;48.738;9.126;2024-01-15T04:37:37;14.70;;;8.03;;
665;SDS011;315;48.738;9.126;2024-01-15T04:40:04;15.77;;;9.20;;
665;SDS011;315;48.738;9.126;2024-01-15T04:42:30;13.33;;;8.23;;
665;SDS011;315;48.738;9.126;2024-01-15T04:44:55;15.03;;;8.60;;
665;SDS011;315;48.738;9.126;2024-01-15T04:47:21;18.60;;;7.97;;
665;SDS011;315;48.738;9.126;2024-01-15T04:49:46;13.07;;;7.83;;
665;SDS011;315;48.738;9.126;2024-01-15T04:52:14;12.00;;;7.27;;
665;SDS011;315;48.738;9.126;2024-01-15T04:54:39;16.70;;;8.83;;
665;SDS011;315;48.738;9.126;2024-01-15T04:57:05;18.07;;;8.83;;
665;SDS011;315;48.738;9.126;2024-01-15T04:59:30;11.13;;;8.20;;
665;SDS011;315;48.738;9.126;2024-01-15T05:01:56;19.80;;;10.33;;
665;SDS011;315;48.738;9.126;2024-01-15T05:04:22;17.50;;;9.10;;
665;SDS011;315;48.738;9.126;2024-01-15T05:06:49;14.40;;;9.90;;
665;SDS011;315;48.738;9.126;2024-01-15T05:09:14;17.60;;;10.47;;
665;SDS011;315;48.738;9.126;2024-01-15T05:11:40;19.00;;;9.57;;
665;SDS011;315;48.738;9.126;2024-01-15T05:14:05;17.47;;;9.37;;
665;SDS011;315;48.738;9.126;2024-01-15T05:16:31;19.40;;;8.50;;
665;SDS011;315;48.738;9.126;2024-01-15T05:18:56;22.77;;;9.73;;
665;SDS011;315;48.738;9.126;2024-01-15T05:21:22;14.20;;;8.97;;
665;SDS011;315;48.738;9.126;2024-01-15T05:23:47;17.03;;;9.90;;
665;SDS011;315;48.738;9.126;2024-01-15T05:26:13;19.33;;;11.20;;
665;SDS011;315;48.738;9.126;2024-01-15T05:28:40;16.40;;;8.50;;
665;SDS011;315;48.738;9.126;2024-01-15T05:31:07;16.67;;;9.37;;
665;SDS011;315;48.738;9.126;2024-01-15T05:33:33;13.10;;;7.20;;
665;SDS011;315;48.738;9.126;2024-01-15T05:35:58;15.57;;;8.60;;
665;SDS011;315;48.738;9.126;2024-01-15T05:38:24;16.03;;;10.10;;
665;SDS011;315;48.738;9.126;2024-01-15T05:40:49;18.37;;;8.60;;
665;SDS011;315;48.738;9.126;2024-01-15T05:43:15;14.03;;;9.87;;
665;SDS011;315;48.738;9.126;2024-01-15T05:45:42;15.03;;;9.73;;
665;SDS011;315;48.738;9.126;2024-01-15T05:48:09;17.13;;;9.87;;
665;SDS011;315;48.738;9.126;2024-01-15T05:50:35;18.43;;;10.70;;
665;SDS011;315;48.738;9.126;2024-01-15T05:53:00;14.10;;;9.33;;
665;SDS011;315;48.738;9.126;2024-01-15T05:55:27;12.70;;;7.97;;
665;SDS011;315;48.738;9.126;2024-01-15T05:57:53;15.17;;;10.13;;
665;SDS011;315;48.738;9.126;2024-01-15T06:00:18;11.43;;;8.43;;
665;SDS011;315;48.738;9.126;2024-01-15T06:02:44;15.47;;;8.20;;
665;SDS011;315;48.738;9.126;2024-01-15T06:05:10;16.60;;;7.80;;
665;SDS011;315;48.738;9.126;2024-01-15T06:07:35;14.20;;;7.90;;
665;SDS011;315;48.738;9.126;2024-01-15T06:10:01;15.67;;;8.00;;
665;SDS011;315;48.738;9.126;2024-01-15T06:12:27;14.50;;;7.73;;
665;SDS011;315;48.738;9.126;2024-01-15T06:14:53;15.73;;;7.70;;
665;SDS011;315;48.738;9.126;2024-01-15T06:17:18;16.20;;;9.57;;
665;SDS011;315;48.738;9.126;2024-01-15T06:19:44;22.13;;;9.53;;
665;SDS011;315;48.738;9.126;2024-01-15T06:22:09;13.13;;;7.77;;
665;SDS011;315;48.738;9.126;2024-01-15T06:24:35;10.30;;;7.20;;
665;SDS011;315;48.738;9.126;2024-01-15T06:27:01;9.10;;;7.50;;
665;SDS011;315;48.738;9.126;2024-01-15T06:29:27;15.83;;;7.50;;
665;SDS011;315;48.738;9.126;2024-01-15T06:31:53;17.70;;;8.80;;
665;SDS011;315;48.738;9.126;2024-01-15T06:34:19;15.53;;;8.10;;
665;SDS011;315;48.738;9.126;2024-01-15T06:36:44;15.80;;;8.97;;
665;SDS011;315;48.738;9.126;2024-01-15T06:39:10;13.13;;;7.80;;
665;SDS011;315;48.738;9.126;2024-01-15T06:41:35;11.63;;;7.63;;
665;SDS011;315;48.738;9.126;2024-01-15T06:44:08;12.17;;;6.90;;
665;SDS011;315;48.738;9.126;2024-01-15T06:46:38;10.43;;;7.20;;
665;SDS011;315;48.738;9.126;2024-01-15T06:49:07;16.03;;;8.77;;
665;SDS011;315;48.738;9.126;2024-01-15T06:51:33;14.50;;;8.57;;
665;SDS011;315;48.738;9.126;2024-01-15T06:53:58;15.13;;;8.00;;
665;SDS011;315;48.738;9.126;2024-01-15T06:56:24;12.60;;;7.70;;
665;SDS011;315;48.738;9.126;2024-01-15T06:58:49;13.63;;;7.33;;
665;SDS011;315;48.738;9.126;2024-01-15T07:01:15;14.53;;;7.60;;
665;SDS011;315;48.738;9.126;2024-01-15T07:03:40;8.93;;;7.40;;
665;SDS011;315;48.738;9.126;2024-01-15T07:06:06;12.10;;;7.97;;
665;SDS011;315;48.738;9.126;2024-01-15T07:08:31;17.00;;;7.50;;
665;SDS011;315;48.738;9.126;2024-01-15T07:10:57;13.83;;;6.57;;
665;SDS011;315;48.738;9.126;2024-01-15T07:13:22;14.37;;;7.50;;
665;SDS011;315;48.738;9.126;2024-01-15T07:15:48;16.50;;;9.00;;
665;SDS011;315;48.738;9.126;2024-01-15T07:18:13;15.00;;;8.90;;
665;SDS011;315;48.738;9.126;2024-01-15T07:20:39;10.67;;;7.60;;
665;SDS011;315;48.738;9.126;2024-01-15T07:23:04;11.00;;;7.10;;
665;SDS011;315;48.738;9.126;2024-01-15T07:25:30;20.40;;;8.50;;
665;SDS011;315;48.738;9.126;2024-01-15T07:27:55;12.07;;;7.90;;
665;SDS011;315;48.738;9.126;2024-01-15T07:30:21;14.57;;;8.20;;
665;SDS011;315;48.738;9.126;2024-01-15T07:32:47;13.20;;;8.73;;
665;SDS011;315;48.738;9.126;2024-01-15T07:35:13;14.50;;;7.60;;
665;SDS011;315;48.738;9.126;2024-01-15T07:37:40;14.43;;;8.67;;
665;SDS011;315;48.738;9.126;2024-01-15T07:40:06;14.13;;;7.50;;
665;SDS011;315;48.738;9.126;2024-01-15T07:42:33;14.37;;;8.00;;
665;SDS011;315;48.738;9.126;2024-01-15T07:44:59;11.30;;;7.40;;
665;SDS011;315;48.738;9.126;2024-01-15T07:47:25;14.17;;;7.73;;
665;SDS011;315;48.738;9.126;2024-01-15T07:49:52;13.77;;;7.50;;
665;SDS011;315;48.738;9.126;2024-01-15T07:52:17;14.80;;;7.60;;
665;SDS011;315;48.738;9.126;2024-01-15T07:54:43;10.70;;;6.40;;
665;SDS011;315;48.738;9.126;2024-01-15T07:57:09;10.80;;;6.97;;
665;SDS011;315;48.738;9.126;2024-01-15T07:59:35;12.47;;;8.20;;
665;SDS011;315;48.738;9.126;2024-01-15T08:02:00;9.80;;;7.57;;
665;SDS011;315;48.738;9.126;2024-01-15T08:04:26;13.10;;;7.33;;
665;SDS011;315;48.738;9.126;2024-01-15T08:06:52;14.30;;;7.53;;
665;SDS011;315;48.738;9.126;2024-01-15T08:09:18;12.40;;;6.73;;
665;SDS011;315;48.738;9.126;2024-01-15T08:11:43;14.87;;;7.60;;
665;SDS011;315;48.738;9.126;2024-01-15T08:14:09;11.87;;;6.77;;
665;SDS011;315;48.738;9.126;2024-01-15T08:16:36;13.53;;;7.70;;
665;SDS011;315;48.738;9.126;2024-01-15T08:19:02;9.37;;;6.70;;
665;SDS011;315;48.738;9.126;2024-01-15T08:21:28;13.57;;;7.47;;
665;SDS011;315;48.738;9.126;2024-01-15T08:23:55;14.50;;;7.40;;
665;SDS011;315;48.738;9.126;2024-01-15T08:26:21;12.03;;;6.60;;
665;SDS011;315;48.738;9.126;2024-01-15T08:28:47;10.77;;;6.20;;
665;SDS011;315;48.738;9.126;2024-01-15T08:31:13;10.07;;;6.40;;
665;SDS011;315;48.738;9.126;2024-01-15T08:33:38;14.73;;;8.03;;
665;SDS011;315;48.738;9.126;2024-01-15T08:36:04;12.93;;;7.90;;
665;SDS011;315;48.738;9.126;2024-01-15T08:38:30;13.30;;;8.27;;
665;SDS011;315;48.738;9.126;2024-01-15T08:40:56;17.33;;;6.33;;
665;SDS011;315;48.738;9.126;2024-01-15T08:43:23;14.70;;;6.97;;
665;SDS011;315;48.738;9.126;2024-01-15T08:45:49;10.33;;;6.97;;
665;SDS011;315;48.738;9.126;2024-01-15T08:48:15;10.47;;;6.40;;
665;SDS011;315;48.738;9.126;2024-01-15T08:50:41;9.13;;;6.00;;
665;SDS011;315;48.738;9.126;2024-01-15T08:53:07;11.67;;;6.30;;
665;SDS011;315;48.738;9.126;2024-01-15T08:55:32;9.00;;;5.37;;
665;SDS011;315;48.738;9.126;2024-01-15T08:57:58;12.03;;;7.50;;
665;SDS011;315;48.738;9.126;2024-01-15T09:00:24;8.57;;;6.20;;
665;SDS011;315;48.738;9.126;2024-01-15T09:02:49;12.80;;;6.40;;
665;SDS011;315;48.738;9.126;2024-01-15T09:05:15;9.87;;;5.40;;
665;SDS011;315;48.738;9.126;2024-01-15T09:07:40;8.80;;;5.77;;
665;SDS011;315;48.738;9.126;2024-01-15T09:10:06;7.80;;;4.97;;
665;SDS011;315;48.738;9.126;2024-01-15T09:12:32;7.97;;;4.30;;
665;SDS011;315;48.738;9.126;2024-01-15T09:14:57;8.13;;;4.60;;
665;SDS011;315;48.738;9.126;2024-01-15T09:17:23;6.10;;;4.90;;
665;SDS011;315;48.738;9.126;2024-01-15T09:19:48;11.87;;;5.90;;
665;SDS011;315;48.738;9.126;2024-01-15T09:22:14;8.67;;;5.40;;
665;SDS011;315;48.738;9.126;2024-01-15T09:24:43;8.00;;;5.13;;
665;SDS011;315;48.738;9.126;2024-01-15T09:27:09;6.77;;;4.60;;
665;SDS011;315;48.738;9.126;2024-01-15T09:29:34;7.00;;;4.87;;
665;SDS011;315;48.738;9.126;2024-01-15T09:32:02;7.87;;;4.87;;
665;SDS011;315;48.738;9.126;2024-01-15T09:34:29;8.50;;;5.33;;
665;SDS011;315;48.738;9.126;2024-01-15T09:36:54;10.30;;;5.13;;
665;SDS011;315;48.738;9.126;2024-01-15T09:39:20;8.80;;;4.90;;
665;SDS011;315;48.738;9.126;2024-01-15T09:41:46;6.70;;;4.73;;
665;SDS011;315;48.738;9.126;2024-01-15T09:44:13;11.77;;;4.97;;
665;SDS011;315;48.738;9.126;2024-01-15T09:46:39;6.17;;;4.80;;
665;SDS011;315;48.738;9.126;2024-01-15T09:49:06;8.57;;;5.50;;
665;SDS011;315;48.738;9.126;2024-01-15T09:51:32;6.40;;;4.77;;
665;SDS011;315;48.738;9.126;2024-01-15T09:53:57;8.20;;;5.00;;
665;SDS011;315;48.738;9.126;2024-01-15T09:56:23;8.50;;;5.60;;
665;SDS011;315;48.738;9.126;2024-01-15T09:58:49;11.27;;;5.70;;
665;SDS011;315;48.738;9.126;2024-01-15T10:01:18;8.67;;;4.97;;
665;SDS011;315;48.738;9.126;2024-01-15T10:03:45;8.37;;;5.30;;
665;SDS011;315;48.738;9.126;2024-01-15T10:06:11;6.93;;;4.37;;
665;SDS011;315;48.738;9.126;2024-01-15T10:08:42;9.40;;;5.00;;
665;SDS011;315;48.738;9.126;2024-01-15T10:11:11;11.57;;;5.30;;
665;SDS011;315;48.738;9.126;2024-01-15T10:13:36;8.40;;;6.50;;
665;SDS011;315;48.738;9.126;2024-01-15T10:16:02;8.20;;;5.30;;
665;SDS011;315;48.738;9.126;2024-01-15T10:18:29;11.50;;;5.57;;
665;SDS011;315;48.738;9.126;2024-01-15T10:20:54;9.93;;;4.87;;
665;SDS011;315;48.738;9.126;2024-01-15T10:23:22;9.67;;;4.87;;
665;SDS011;315;48.738;9.126;2024-01-15T10:25:48;8.33;;;4.97;;
665;SDS011;315;48.738;9.126;2024-01-15T10:28:14;6.50;;;4.80;;
665;SDS011;315;48.738;9.126;2024-01-15T10:30:39;5.63;;;5.10;;
665;SDS011;315;48.738;9.126;2024-01-15T10:33:05;5.97;;;4.17;;
665;SDS011;315;48.738;9.126;2024-01-15T10:35:31;5.67;;;4.53;;
665;SDS011;315;48.738;9.126;2024-01-15T10:37:58;6.00;;;4.90;;
665;SDS011;315;48.738;9.126;2024-01-15T10:40:25;6.80;;;4.93;;
665;SDS011;315;48.738;9.126;2024-01-15T10:42:50;8.40;;;5.90;;
665;SDS011;315;48.738;9.126;2024-01-15T10:45:16;9.17;;;4.83;;
665;SDS011;315;48.738;9.126;2024-01-15T10:47:42;7.50;;;4.20;;
665;SDS011;315;48.738;9.126;2024-01-15T10:50:09;8.27;;;5.53;;
665;SDS011;315;48.738;9.126;2024-01-15T10:52:35;10.47;;;5.40;;
665;SDS011;315;48.738;9.126;2024-01-15T10:55:02;8.70;;;5.03;;
665;SDS011;315;48.738;9.126;2024-01-15T10:57:29;7.10;;;4.63;;
665;SDS011;315;48.738;9.126;2024-01-15T10:59:55;10.10;;;6.03;;
665;SDS011;315;48.738;9.126;2024-01-15T11:02:21;9.90;;;6.57;;
665;SDS011;315;48.738;9.126;2024-01-15T11:04:47;6.93;;;5.07;;
665;SDS011;315;48.738;9.126;2024-01-15T11:07:13;7.43;;;5.30;;
665;SDS011;315;48.738;9.126;2024-01-15T11:09:39;7.97;;;5.90;;
665;SDS011;315;48.738;9.126;2024-01-15T11:12:09;9.00;;;4.53;;
665;SDS011;315;48.738;9.126;2024-01-15T11:14:39;8.43;;;5.27;;
665;SDS011;315;48.738;9.126;2024-01-15T11:17:09;7.60;;;5.67;;
665;SDS011;315;48.738;9.126;2024-01-15T11:19:36;8.57;;;5.30;;
665;SDS011;315;48.738;9.126;2024-01-15T11:25:17;6.80;;;5.27;;
665;SDS011;315;48.738;9.126;2024-01-15T11:27:47;9.27;;;5.07;;
665;SDS011;315;48.738;9.126;2024-01-15T11:30:16;8.70;;;5.53;;
665;SDS011;315;48.738;9.126;2024-01-15T11:32:42;8.23;;;5.37;;
665;SDS011;315;48.738;9.126;2024-01-15T11:35:11;6.83;;;4.87;;
665;SDS011;315;48.738;9.126;2024-01-15T11:40:58;8.50;;;4.70;;
665;SDS011;315;48.738;9.126;2024-01-15T11:43:08;10.93;;;5.60;;
665;SDS011;315;48.738;9.126;2024-01-15T11:45:34;8.77;;;6.30;;
665;SDS011;315;48.738;9.126;2024-01-15T11:48:10;6.40;;;5.00;;
665;SDS011;315;48.738;9.126;2024-01-15T11:50:44;13.37;;;6.90;;
665;SDS011;315;48.738;9.126;2024-01-15T11:53:21;9.13;;;5.27;;
665;SDS011;315;48.738;9.126;2024-01-15T11:55:58;11.03;;;5.77;;
665;SDS011;315;48.738;9.126;2024-01-15T11:58:26;10.10;;;5.30;;
665;SDS011;315;48.738;9.126;2024-01-15T12:00:52;10.83;;;6.57;;
665;SDS011;315;48.738;9.126;2024-01-15T12:03:20;10.30;;;6.30;;
665;SDS011;315;48.738;9.126;2024-01-15T12:05:46;12.37;;;7.47;;
665;SDS011;315;48.738;9.126;2024-01-15T12:08:12;6.50;;;5.23;;
665;SDS011;315;48.738;9.126;2024-01-15T12:10:38;9.77;;;5.87;;
665;SDS011;315;48.738;9.126;2024-01-15T12:13:12;11.03;;;6.67;;
665;SDS011;315;48.738;9.126;2024-01-15T12:15:39;9.83;;;6.13;;
665;SDS011;315;48.738;9.126;2024-01-15T12:18:07;10.73;;;6.10;;
665;SDS011;315;48.738;9.126;2024-01-15T12:20:33;9.87;;;6.50;;
665;SDS011;315;48.738;9.126;2024-01-15T12:23:01;9.13;;;7.47;;
665;SDS011;315;48.738;9.126;2024-01-15T12:25:35;7.53;;;6.50;;
665;SDS011;315;48.738;9.126;2024-01-15T12:28:01;8.37;;;5.83;;
665;SDS011;315;48.738;9.126;2024-01-15T12:30:27;11.90;;;6.53;;
665;SDS011;315;48.738;9.126;2024-01-15T12:32:53;11.30;;;6.47;;
665;SDS011;315;48.738;9.126;2024-01-15T12:35:20;10.20;;;6.90;;
665;SDS011;315;48.738;9.126;2024-01-15T12:37:45;10.20;;;6.73;;
665;SDS011;315;48.738;9.126;2024-01-15T12:40:12;11.80;;;7.67;;
665;SDS011;315;48.738;9.126;2024-01-15T12:42:41;11.17;;;7.20;;
665;SDS011;315;48.738;9.126;2024-01-15T12:45:07;8.50;;;6.47;;
665;SDS011;315;48.738;9.126;2024-01-15T12:47:34;10.50;;;6.77;;
665;SDS011;315;48.738;9.126;2024-01-15T12:50:01;10.00;;;7.07;;
665;SDS011;315;48.738;9.126;2024-01-15T12:52:26;9.43;;;6.07;;
665;SDS011;315;48.738;9.126;2024-01-15T12:54:53;12.60;;;7.30;;
665;SDS011;315;48.738;9.126;2024-01-15T12:57:18;9.53;;;7.50;;
665;SDS011;315;48.738;9.126;2024-01-15T12:59:44;10.93;;;7.13;;
665;SDS011;315;48.738;9.126;2024-01-15T13:02:10;11.97;;;6.90;;
665;SDS011;315;48.738;9.126;2024-01-15T13:04:39;16.63;;;7.20;;
665;SDS011;315;48.738;9.126;2024-01-15T13:07:05;8.63;;;6.20;;
665;SDS011;315;48.738;9.126;2024-01-15T13:09:32;13.07;;;7.30;;
665;SDS011;315;48.738;9.126;2024-01-15T13:11:57;10.30;;;7.00;;
665;SDS011;315;48.738;9.126;2024-01-15T13:14:23;10.87;;;7.47;;
665;SDS011;315;48.738;9.126;2024-01-15T13:16:49;13.53;;;8.70;;
665;SDS011;315;48.738;9.126;2024-01-15T13:19:14;10.37;;;6.47;;
665;SDS011;315;48.738;9.126;2024-01-15T13:21:40;8.63;;;6.20;;
665;SDS011;315;48.738;9.126;2024-01-15T13:24:06;7.77;;;5.70;;
665;SDS011;315;48.738;9.126;2024-01-15T13:26:32;7.37;;;4.77;;
665;SDS011;315;48.738;9.126;2024-01-15T13:29:01;8.03;;;5.77;;
665;SDS011;315;48.738;9.126;2024-01-15T13:31:30;7.10;;;4.77;;
665;SDS011;315;48.738;9.126;2024-01-15T13:33:57;8.83;;;5.40;;
665;SDS011;315;48.738;9.126;2024-01-15T13:36:23;9.50;;;5.50;;
665;SDS011;315;48.738;9.126;2024-01-15T13:38:52;7.47;;;4.97;;
665;SDS011;315;48.738;9.126;2024-01-15T13:41:18;9.90;;;5.30;;
665;SDS011;315;48.738;9.126;2024-01-15T13:43:48;8.80;;;5.90;;
665;SDS011;315;48.738;9.126;2024-01-15T13:46:14;6.63;;;5.33;;
665;SDS011;315;48.738;9.126;2024-01-15T13:48:40;13.47;;;6.27;;
665;SDS011;315;48.738;9.126;2024-01-15T13:51:06;9.80;;;6.00;;
665;SDS011;315;48.738;9.126;2024-01-15T13:53:31;5.97;;;4.87;;
665;SDS011;315;48.738;9.126;2024-01-15T13:55:57;10.90;;;6.73;;
665;SDS011;315;48.738;9.126;2024-01-15T13:58:22;9.03;;;5.43;;
665;SDS011;315;48.738;9.126;2024-01-15T14:00:48;11.77;;;7.47;;
665;SDS011;315;48.738;9.126;2024-01-15T14:03:13;18.40;;;8.87;;
665;SDS011;315;48.738;9.126;2024-01-15T14:05:39;8.57;;;6.33;;
665;SDS011;315;48.738;9.126;2024-01-15T14:08:05;9.43;;;6.47;;
665;SDS011;315;48.738;9.126;2024-01-15T14:10:31;7.53;;;5.70;;
665;SDS011;315;48.738;9.126;2024-01-15T14:12:56;7.73;;;5.10;;
665;SDS011;315;48.738;9.126;2024-01-15T14:15:22;10.30;;;5.50;;
665;SDS011;315;48.738;9.126;2024-01-15T14:17:47;8.93;;;4.73;;
665;SDS011;315;48.738;9.126;2024-01-15T14:20:13;10.00;;;4.73;;
665;SDS011;315;48.738;9.126;2024-01-15T14:22:38;7.83;;;4.80;;
665;SDS011;315;48.738;9.126;2024-01-15T14:25:04;5.90;;;4.27;;
665;SDS011;315;48.738;9.126;2024-01-15T14:27:30;10.10;;;5.40;;
665;SDS011;315;48.738;9.126;2024-01-15T14:29:55;6.33;;;4.77;;
665;SDS011;315;48.738;9.126;2024-01-15T14:32:21;4.97;;;4.23;;
665;SDS011;315;48.738;9.126;2024-01-15T14:34:46;9.57;;;4.07;;
665;SDS011;315;48.738;9.126;2024-01-15T14:37:14;7.17;;;3.70;;
665;SDS011;315;48.738;9.126;2024-01-15T14:39:39;5.87;;;4.57;;
665;SDS011;315;48.738;9.126;2024-01-15T14:42:05;4.80;;;3.57;;
665;SDS011;315;48.738;9.126;2024-01-15T14:44:31;5.70;;;4.33;;
665;SDS011;315;48.738;9.126;2024-01-15T14:46:58;4.90;;;4.20;;
665;SDS011;315;48.738;9.126;2024-01-15T14:49:24;4.77;;;4.27;;
665;SDS011;315;48.738;9.126;2024-01-15T14:51:50;5.80;;;4.00;;
665;SDS011;315;48.738;9.126;2024-01-15T14:54:15;4.47;;;3.70;;
665;SDS011;315;48.738;9.126;2024-01-15T14:56:41;5.93;;;4.30;;
665;SDS011;315;48.738;9.126;2024-01-15T14:59:07;8.17;;;5.50;;
665;SDS011;315;48.738;9.126;2024-01-15T15:01:33;5.27;;;4.77;;
665;SDS011;315;48.738;9.126;2024-01-15T15:03:59;8.23;;;6.17;;
665;SDS011;315;48.738;9.126;2024-01-15T15:06:24;5.40;;;4.60;;
665;SDS011;315;48.738;9.126;2024-01-15T15:08:52;6.53;;;5.30;;
665;SDS011;315;48.738;9.126;2024-01-15T15:11:20;7.33;;;4.43;;
665;SDS011;315;48.738;9.126;2024-01-15T15:13:47;5.03;;;4.03;;
665;SDS011;315;48.738;9.126;2024-01-15T15:16:14;6.70;;;5.00;;
665;SDS011;315;48.738;9.126;2024-01-15T15:18:40;6.77;;;5.70;;
665;SDS011;315;48.738;9.126;2024-01-15T15:21:07;8.80;;;6.10;;
665;SDS011;315;48.738;9.126;2024-01-15T15:23:33;18.33;;;16.63;;
665;SDS011;315;48.738;9.126;2024-01-15T15:25:59;11.50;;;10.17;;
665;SDS011;315;48.738;9.126;2024-01-15T15:28:24;6.63;;;5.73;;
665;SDS011;315;48.738;9.126;2024-01-15T15:30:50;7.33;;;6.00;;
665;SDS011;315;48.738;9.126;2024-01-15T15:33:15;7.20;;;5.20;;